Duncanville, Texas
Current Conditions -  °F | °C
As of 6:53 PM on Saturday 25 Oct 2014 (Local Time) from KRBD Reporting Station
Clear Clear  
Wind Chill: 82°   Ceiling: Unl
Heat Index: 82°   Visibility: 10mi
Dew Point: 60°   Wind: 3mph
Humidity: 47%   Direction: 170°S
Pressure: 30.05"   Gusts: NA
Location:  32.65°N, 96.91°W
Report Text: KRBD 252353Z AUTO 17003KT 10SM CLR 28/16 A3005 RMK AO2 SLP168 T02780156 10322 20278 56006
Loading
Personal Weather Stations






























Interactive Weather Map
Tropical Storm Tracking
New forecast layout! Learn more

10-Day Weather Forecast

Advertisements
Track Severe Weather on mobile